createdAt,value
2018-08-30T00:00:47.964Z,15.07
2018-08-30T00:03:16.611Z,16.23
2018-08-30T00:05:45.455Z,14.80
2018-08-30T00:08:14.266Z,15.17
2018-08-30T00:10:43.264Z,16.07
2018-08-30T00:13:17.047Z,17.13
2018-08-30T00:15:47.895Z,17.47
2018-08-30T00:18:16.451Z,20.27
2018-08-30T00:20:45.701Z,21.73
2018-08-30T00:23:14.305Z,22.47
2018-08-30T00:25:42.893Z,19.60
2018-08-30T00:28:11.509Z,21.20
2018-08-30T00:30:40.037Z,24.03
2018-08-30T00:33:08.642Z,28.20
2018-08-30T00:35:37.283Z,30.43
2018-08-30T00:38:05.942Z,31.80
2018-08-30T00:40:34.651Z,31.10
2018-08-30T00:43:03.234Z,33.40
2018-08-30T00:45:31.824Z,34.27
2018-08-30T00:48:00.710Z,34.87
2018-08-30T00:50:29.336Z,38.03
2018-08-30T00:52:57.873Z,34.13
2018-08-30T00:55:26.520Z,34.60
2018-08-30T00:57:55.118Z,33.90
2018-08-30T01:00:23.754Z,33.53
2018-08-30T01:02:52.515Z,30.50
2018-08-30T01:05:21.044Z,30.73
2018-08-30T01:07:49.655Z,30.57
2018-08-30T01:10:18.201Z,32.67
2018-08-30T01:12:52.196Z,31.57
2018-08-30T01:15:21.127Z,33.03
2018-08-30T01:17:49.707Z,31.70
2018-08-30T01:20:18.538Z,30.10
2018-08-30T01:22:47.236Z,32.70
2018-08-30T01:25:15.789Z,31.87
2018-08-30T01:27:44.332Z,33.53
2018-08-30T01:30:13.239Z,34.30
2018-08-30T01:32:43.178Z,35.20
2018-08-30T01:35:11.788Z,33.73
2018-08-30T01:37:41.267Z,33.47
2018-08-30T01:40:09.842Z,34.57
2018-08-30T01:42:38.346Z,33.40
2018-08-30T01:45:07.643Z,35.70
2018-08-30T01:47:36.217Z,39.90
2018-08-30T01:50:04.798Z,39.00
2018-08-30T01:52:33.324Z,36.43
2018-08-30T01:55:01.917Z,38.43
2018-08-30T01:57:30.425Z,39.20
2018-08-30T01:59:58.975Z,39.73
2018-08-30T02:02:27.584Z,37.03
2018-08-30T02:04:56.132Z,38.70
2018-08-30T02:07:24.794Z,38.50
2018-08-30T02:09:53.328Z,39.60
2018-08-30T02:12:21.915Z,38.73
2018-08-30T02:14:50.746Z,39.27
2018-08-30T02:17:19.303Z,41.43
2018-08-30T02:19:47.854Z,42.93
2018-08-30T02:22:17.190Z,42.33
2018-08-30T02:24:46.485Z,41.90
2018-08-30T02:27:15.002Z,41.87
2018-08-30T02:29:43.610Z,40.87
2018-08-30T02:32:12.471Z,45.57
2018-08-30T02:34:41.047Z,43.87
2018-08-30T02:37:09.670Z,44.10
2018-08-30T02:39:39.299Z,45.43
2018-08-30T02:42:07.857Z,45.70
2018-08-30T02:44:36.490Z,42.70
2018-08-30T02:47:05.586Z,41.40
2018-08-30T02:49:34.180Z,43.03
2018-08-30T02:52:02.717Z,45.13
2018-08-30T02:54:31.657Z,45.10
2018-08-30T02:57:00.232Z,45.03
2018-08-30T02:59:28.783Z,46.27
2018-08-30T03:01:57.350Z,44.87
2018-08-30T03:04:26.775Z,45.30
2018-08-30T03:06:55.266Z,42.60
2018-08-30T03:09:24.136Z,42.70
2018-08-30T03:11:52.783Z,44.80
2018-08-30T03:14:21.934Z,44.47
2018-08-30T03:16:50.516Z,45.50
2018-08-30T03:19:19.759Z,43.23
2018-08-30T03:21:49.188Z,43.07
2018-08-30T03:24:18.442Z,46.00
2018-08-30T03:26:46.998Z,47.80
2018-08-30T03:29:15.551Z,47.87
2018-08-30T03:31:44.243Z,42.50
2018-08-30T03:34:13.090Z,46.93
2018-08-30T03:36:41.644Z,43.57
2018-08-30T03:39:10.959Z,43.90
2018-08-30T03:41:39.486Z,44.87
2018-08-30T03:44:08.042Z,43.43
2018-08-30T03:46:36.642Z,43.10
2018-08-30T03:49:05.475Z,42.83
2018-08-30T03:51:34.084Z,42.23
2018-08-30T03:54:02.670Z,44.33
2018-08-30T03:56:31.231Z,43.23
2018-08-30T03:58:59.758Z,42.03
2018-08-30T04:01:28.562Z,39.80
2018-08-30T04:03:57.791Z,43.97
2018-08-30T04:06:26.453Z,42.40
2018-08-30T04:08:56.618Z,44.23
2018-08-30T04:11:25.876Z,46.50
2018-08-30T04:13:54.750Z,44.70
2018-08-30T04:16:24.186Z,43.87
2018-08-30T04:18:57.298Z,41.30
2018-08-30T04:21:25.830Z,44.17
2018-08-30T04:23:54.842Z,45.83
2018-08-30T04:26:23.812Z,48.03
2018-08-30T04:28:52.403Z,46.43
2018-08-30T04:31:21.364Z,45.50
2018-08-30T04:33:49.958Z,44.97
2018-08-30T04:36:18.502Z,50.40
2018-08-30T04:38:47.080Z,46.77
2018-08-30T04:41:15.774Z,48.33
2018-08-30T04:43:44.797Z,46.80
2018-08-30T04:46:14.050Z,45.20
2018-08-30T04:48:43.346Z,44.90
2018-08-30T04:51:12.279Z,43.40
2018-08-30T04:53:40.897Z,44.00
2018-08-30T04:56:09.447Z,42.30
2018-08-30T04:58:38.383Z,44.57
2018-08-30T05:01:06.994Z,43.87
2018-08-30T05:03:36.169Z,42.10
2018-08-30T05:06:04.778Z,46.80
2018-08-30T05:08:33.666Z,45.47
2018-08-30T05:11:06.858Z,44.43
2018-08-30T05:13:35.494Z,44.60
2018-08-30T05:16:04.255Z,44.03
2018-08-30T05:18:32.794Z,48.83
2018-08-30T05:21:01.529Z,43.30
2018-08-30T05:23:30.090Z,39.57
2018-08-30T05:25:58.669Z,42.43
2018-08-30T05:28:27.165Z,43.13
2018-08-30T05:30:55.674Z,42.00
2018-08-30T05:33:24.207Z,41.67
2018-08-30T05:35:52.857Z,43.27
2018-08-30T05:38:21.401Z,41.47
2018-08-30T05:40:50.172Z,42.93
2018-08-30T05:43:18.764Z,40.50
2018-08-30T05:45:47.334Z,40.20
2018-08-30T05:48:15.929Z,42.20
2018-08-30T05:50:44.531Z,42.17
2018-08-30T05:53:13.114Z,40.47
2018-08-30T05:55:41.683Z,38.53
2018-08-30T05:58:10.235Z,39.13
2018-08-30T06:00:38.881Z,39.30
2018-08-30T06:03:07.732Z,40.13
2018-08-30T06:05:36.479Z,37.67
2018-08-30T06:08:05.802Z,35.67
2018-08-30T06:10:34.402Z,36.20
2018-08-30T06:13:03.246Z,35.90
2018-08-30T06:15:31.877Z,35.73
2018-08-30T06:18:00.523Z,32.63
2018-08-30T06:20:29.050Z,34.83
2018-08-30T06:22:57.599Z,33.57
2018-08-30T06:25:26.176Z,31.23
2018-08-30T06:27:54.750Z,33.47
2018-08-30T06:30:23.330Z,30.47
2018-08-30T06:32:51.948Z,32.17
2018-08-30T06:35:21.175Z,33.40
2018-08-30T06:37:50.152Z,29.93
2018-08-30T06:40:19.522Z,30.00
2018-08-30T06:42:48.417Z,30.83
2018-08-30T06:45:17.045Z,30.30
2018-08-30T06:47:45.573Z,31.63
2018-08-30T06:50:14.164Z,30.97
2018-08-30T06:52:42.762Z,31.20
2018-08-30T06:55:11.307Z,31.33
2018-08-30T06:57:40.029Z,32.93
2018-08-30T07:00:08.828Z,32.13
2018-08-30T07:02:38.019Z,31.63
2018-08-30T07:05:06.762Z,35.97
2018-08-30T07:07:35.480Z,35.13
2018-08-30T07:10:04.143Z,32.87
2018-08-30T07:12:32.734Z,35.20
2018-08-30T07:15:01.411Z,34.07
2018-08-30T07:17:29.936Z,37.50
2018-08-30T07:19:58.517Z,33.20
2018-08-30T07:22:27.398Z,34.73
2018-08-30T07:24:55.882Z,35.77
2018-08-30T07:27:25.287Z,37.87
2018-08-30T07:29:53.858Z,38.67
2018-08-30T07:32:22.466Z,38.07
2018-08-30T07:34:51.937Z,37.53
2018-08-30T07:37:20.816Z,39.47
2018-08-30T07:39:49.331Z,40.03
2018-08-30T07:42:17.953Z,36.07
2018-08-30T07:44:46.507Z,37.20
2018-08-30T07:47:15.080Z,38.40
2018-08-30T07:49:43.659Z,34.07
2018-08-30T07:52:12.435Z,32.67
2018-08-30T07:54:41.164Z,31.07
2018-08-30T07:57:10.543Z,31.57
2018-08-30T07:59:39.575Z,29.57
2018-08-30T08:02:08.234Z,31.23
2018-08-30T08:04:37.323Z,33.23
2018-08-30T08:07:06.467Z,28.97
2018-08-30T08:09:35.727Z,27.80
2018-08-30T08:12:04.459Z,27.77
2018-08-30T08:14:32.987Z,26.07
2018-08-30T08:17:02.115Z,25.30
2018-08-30T08:19:30.688Z,25.77
2018-08-30T08:21:59.554Z,24.43
2018-08-30T08:24:28.852Z,23.07
2018-08-30T08:26:58.148Z,24.07
2018-08-30T08:29:27.040Z,24.97
2018-08-30T08:31:55.640Z,22.50
2018-08-30T08:34:24.610Z,21.20
2018-08-30T08:36:54.021Z,25.83
2018-08-30T08:39:22.869Z,23.17
2018-08-30T08:41:51.740Z,19.43
2018-08-30T08:44:20.760Z,16.20
2018-08-30T08:46:49.849Z,14.53
2018-08-30T08:49:18.431Z,14.57
2018-08-30T08:51:47.065Z,19.73
2018-08-30T08:54:16.911Z,14.20
2018-08-30T08:56:45.544Z,13.13
2018-08-30T08:59:14.298Z,13.10
2018-08-30T09:01:43.189Z,18.40
2018-08-30T09:04:12.595Z,11.33
2018-08-30T09:06:41.716Z,12.07
2018-08-30T09:09:12.081Z,9.80
2018-08-30T09:11:41.552Z,12.60
2018-08-30T09:14:10.281Z,10.83
2018-08-30T09:16:39.443Z,12.80
2018-08-30T09:19:08.070Z,11.23
2018-08-30T09:21:37.015Z,12.90
2018-08-30T09:24:05.776Z,11.83
2018-08-30T09:26:34.376Z,11.07
2018-08-30T09:29:03.060Z,13.13
2018-08-30T09:31:31.748Z,13.07
2018-08-30T09:34:00.890Z,9.47
2018-08-30T09:36:29.308Z,6.87
2018-08-30T09:38:57.892Z,10.20
2018-08-30T09:41:26.770Z,7.87
2018-08-30T09:43:55.917Z,11.83
2018-08-30T09:46:24.481Z,6.63
2018-08-30T09:48:53.331Z,6.10
2018-08-30T09:51:21.989Z,9.27
2018-08-30T09:53:50.866Z,8.10
2018-08-30T09:56:19.559Z,7.00
2018-08-30T09:58:48.089Z,5.30
2018-08-30T10:01:22.107Z,7.10
2018-08-30T10:03:50.736Z,6.50
2018-08-30T10:06:19.874Z,7.70
2018-08-30T10:08:48.524Z,6.20
2018-08-30T10:11:17.573Z,6.93
2018-08-30T10:13:46.775Z,6.23
2018-08-30T10:16:15.584Z,6.03
2018-08-30T10:18:44.806Z,5.03
2018-08-30T10:21:13.499Z,7.20
2018-08-30T10:23:42.028Z,7.10
2018-08-30T10:26:10.840Z,4.77
2018-08-30T10:28:39.476Z,9.07
2018-08-30T10:31:08.066Z,8.97
2018-08-30T10:33:36.741Z,5.53
2018-08-30T10:36:08.607Z,7.77
2018-08-30T10:38:37.139Z,6.40
2018-08-30T10:41:06.687Z,6.90
2018-08-30T10:43:35.337Z,8.77
2018-08-30T10:46:03.913Z,4.67
2018-08-30T10:48:32.410Z,7.37
2018-08-30T10:51:01.929Z,5.50
2018-08-30T10:53:30.535Z,4.47
2018-08-30T10:56:00.179Z,9.63
2018-08-30T10:58:28.845Z,8.97
2018-08-30T11:00:57.515Z,7.57
2018-08-30T11:03:26.734Z,5.50
2018-08-30T11:05:55.479Z,6.87
2018-08-30T11:08:24.166Z,6.03
2018-08-30T11:10:52.679Z,4.20
2018-08-30T11:13:21.836Z,5.67
2018-08-30T11:15:50.503Z,7.40
2018-08-30T11:18:19.040Z,7.93
2018-08-30T11:20:48.256Z,5.00
2018-08-30T11:23:16.864Z,6.47
2018-08-30T11:25:45.605Z,7.70
2018-08-30T11:28:14.271Z,7.67
2018-08-30T11:30:43.814Z,4.47
2018-08-30T11:33:16.559Z,5.10
2018-08-30T11:35:46.114Z,5.40
2018-08-30T11:38:14.766Z,6.73
2018-08-30T11:40:43.417Z,6.37
2018-08-30T11:43:15.608Z,5.10
2018-08-30T11:45:50.312Z,10.17
2018-08-30T11:48:19.632Z,6.50
2018-08-30T11:50:49.247Z,4.53
2018-08-30T11:53:18.857Z,8.93
2018-08-30T11:55:48.023Z,6.03
2018-08-30T11:58:16.717Z,7.57
2018-08-30T12:00:45.364Z,5.10
2018-08-30T12:03:14.074Z,4.30
2018-08-30T12:05:44.494Z,6.67
2018-08-30T12:08:13.245Z,6.87
2018-08-30T12:10:41.971Z,9.87
2018-08-30T12:13:10.641Z,11.47
2018-08-30T12:15:39.421Z,8.10
2018-08-30T12:18:08.222Z,7.30
2018-08-30T12:20:37.137Z,5.53
2018-08-30T12:23:05.975Z,6.70
2018-08-30T12:25:35.005Z,3.87
2018-08-30T12:28:03.671Z,7.33
2018-08-30T12:30:32.407Z,7.00
2018-08-30T12:33:01.205Z,11.53
2018-08-30T12:35:29.867Z,31.33
2018-08-30T12:37:58.590Z,24.53
2018-08-30T12:40:27.636Z,15.83
2018-08-30T12:42:56.822Z,10.33
2018-08-30T12:45:25.463Z,5.80
2018-08-30T12:47:54.106Z,4.60
2018-08-30T12:50:22.841Z,20.70
2018-08-30T12:52:51.867Z,11.00
2018-08-30T12:55:20.593Z,27.93
2018-08-30T12:57:49.632Z,12.10
2018-08-30T13:00:18.145Z,7.37
2018-08-30T13:02:46.873Z,7.40
2018-08-30T13:05:15.616Z,6.77
2018-08-30T13:07:44.314Z,8.90
2018-08-30T13:10:13.474Z,8.73
2018-08-30T13:12:42.134Z,5.47
2018-08-30T13:15:11.164Z,5.43
2018-08-30T13:17:39.702Z,8.07
2018-08-30T13:20:08.713Z,4.47
2018-08-30T13:22:37.799Z,4.67
2018-08-30T13:25:07.025Z,5.10
2018-08-30T13:27:36.144Z,5.67
2018-08-30T13:30:05.485Z,7.60
2018-08-30T13:32:34.313Z,3.63
2018-08-30T13:35:04.238Z,8.97
2018-08-30T13:37:32.871Z,7.13
2018-08-30T13:40:01.977Z,6.17
2018-08-30T13:42:30.862Z,9.30
2018-08-30T13:44:59.960Z,4.43
2018-08-30T13:47:28.907Z,5.97
2018-08-30T13:49:57.560Z,6.73
2018-08-30T13:52:31.914Z,6.17
2018-08-30T13:55:00.857Z,2.73
2018-08-30T13:57:29.990Z,7.53
2018-08-30T13:59:58.792Z,5.67
2018-08-30T14:02:27.298Z,5.20
2018-08-30T14:04:56.429Z,3.30
2018-08-30T14:07:25.340Z,5.27
2018-08-30T14:09:55.524Z,5.47
2018-08-30T14:12:24.253Z,4.30
2018-08-30T14:14:53.787Z,7.03
2018-08-30T14:17:22.369Z,3.67
2018-08-30T14:19:51.514Z,4.70
2018-08-30T14:22:20.840Z,4.93
2018-08-30T14:24:49.676Z,8.93
2018-08-30T14:27:18.336Z,4.43
2018-08-30T14:29:47.585Z,3.77
2018-08-30T14:32:16.221Z,4.53
2018-08-30T14:34:45.272Z,6.03
2018-08-30T14:37:13.989Z,5.33
2018-08-30T14:39:42.738Z,5.77
2018-08-30T14:42:11.349Z,7.37
2018-08-30T14:44:39.993Z,23.07
2018-08-30T14:47:09.138Z,7.30
2018-08-30T14:49:38.370Z,15.73
2018-08-30T14:52:06.947Z,3.70
2018-08-30T14:54:36.228Z,3.63
2018-08-30T14:57:05.100Z,6.10
2018-08-30T14:59:34.360Z,5.03
2018-08-30T15:02:02.964Z,6.30
2018-08-30T15:04:31.539Z,6.93
2018-08-30T15:07:00.156Z,6.97
2018-08-30T15:09:28.728Z,6.37
2018-08-30T15:11:57.256Z,5.87
2018-08-30T15:14:26.780Z,4.27
2018-08-30T15:16:55.300Z,4.97
2018-08-30T15:19:24.906Z,4.43
2018-08-30T15:21:53.426Z,6.27
2018-08-30T15:24:22.037Z,4.00
2018-08-30T15:26:50.939Z,7.97
2018-08-30T15:29:19.912Z,5.87
2018-08-30T15:31:48.440Z,4.60
2018-08-30T15:34:17.079Z,9.87
2018-08-30T15:36:45.584Z,5.13
2018-08-30T15:39:14.360Z,7.83
2018-08-30T15:41:42.987Z,5.37
2018-08-30T15:44:11.574Z,4.03
2018-08-30T15:46:40.127Z,7.93
2018-08-30T15:49:09.259Z,6.13
2018-08-30T15:51:37.773Z,7.20
2018-08-30T15:54:07.006Z,4.80
2018-08-30T15:56:35.588Z,6.60
2018-08-30T15:59:04.213Z,8.47
2018-08-30T16:01:32.632Z,8.03
2018-08-30T16:04:01.163Z,7.37
2018-08-30T16:06:29.752Z,4.83
2018-08-30T16:08:58.388Z,6.50
2018-08-30T16:11:26.896Z,4.10
2018-08-30T16:13:55.480Z,7.90
2018-08-30T16:16:24.045Z,4.97
2018-08-30T16:18:52.626Z,3.73
2018-08-30T16:21:22.502Z,3.93
2018-08-30T16:23:51.345Z,6.37
2018-08-30T16:26:20.194Z,6.57
2018-08-30T16:28:49.039Z,6.97
2018-08-30T16:31:18.307Z,6.37
2018-08-30T16:33:47.017Z,5.57
2018-08-30T16:36:16.283Z,5.40
2018-08-30T16:38:44.885Z,9.23
2018-08-30T16:41:13.453Z,5.93
2018-08-30T16:43:42.268Z,5.60
2018-08-30T16:46:10.847Z,5.40
2018-08-30T16:48:39.543Z,3.67
2018-08-30T16:51:08.058Z,4.40
2018-08-30T16:53:36.676Z,8.20
2018-08-30T16:56:05.293Z,4.43
2018-08-30T16:58:33.918Z,7.33
2018-08-30T17:01:02.407Z,4.13
2018-08-30T17:03:31.881Z,7.23
2018-08-30T17:06:00.434Z,7.43
2018-08-30T17:08:29.030Z,4.87
2018-08-30T17:10:57.554Z,7.60
2018-08-30T17:13:26.103Z,6.23
2018-08-30T17:15:54.725Z,3.97
2018-08-30T17:18:23.272Z,6.63
2018-08-30T17:20:53.678Z,6.53
2018-08-30T17:23:22.811Z,5.60
2018-08-30T17:25:51.966Z,9.37
2018-08-30T17:28:21.034Z,6.87
2018-08-30T17:30:49.843Z,9.30
2018-08-30T17:33:18.617Z,8.63
2018-08-30T17:35:47.137Z,7.53
2018-08-30T17:38:15.712Z,6.50
2018-08-30T17:40:44.244Z,6.80
2018-08-30T17:43:12.730Z,5.00
2018-08-30T17:45:41.399Z,6.83
2018-08-30T17:48:10.104Z,6.40
2018-08-30T17:50:38.683Z,5.87
2018-08-30T17:53:07.692Z,6.17
2018-08-30T17:55:36.385Z,4.97
2018-08-30T17:58:05.286Z,5.47
2018-08-30T18:00:33.833Z,6.03
2018-08-30T18:03:02.321Z,3.87
2018-08-30T18:05:30.917Z,5.17
2018-08-30T18:07:59.503Z,4.70
2018-08-30T18:10:27.972Z,6.30
2018-08-30T18:12:56.546Z,5.43
2018-08-30T18:17:57.825Z,5.63
2018-08-30T18:20:26.605Z,6.60
2018-08-30T18:22:55.448Z,6.23
2018-08-30T18:25:23.966Z,7.03
2018-08-30T18:27:52.618Z,6.13
2018-08-30T18:30:21.869Z,8.30
2018-08-30T18:32:50.373Z,6.63
2018-08-30T18:35:18.916Z,5.30
2018-08-30T18:37:47.552Z,7.30
2018-08-30T18:40:16.559Z,7.27
2018-08-30T18:42:45.132Z,6.53
2018-08-30T18:45:14.074Z,5.83
2018-08-30T18:47:42.827Z,6.77
2018-08-30T18:50:11.279Z,7.47
2018-08-30T18:52:39.802Z,3.73
2018-08-30T18:55:08.442Z,6.77
2018-08-30T18:57:37.035Z,5.43
2018-08-30T19:00:06.228Z,5.20
2018-08-30T19:02:35.205Z,5.37
2018-08-30T19:05:03.933Z,5.30
2018-08-30T19:07:32.726Z,4.43
2018-08-30T19:10:01.865Z,3.37
2018-08-30T19:12:30.705Z,5.53
2018-08-30T19:14:59.304Z,4.67
2018-08-30T19:17:33.565Z,4.67
2018-08-30T19:20:02.119Z,6.33
2018-08-30T19:22:31.083Z,5.17
2018-08-30T19:25:05.049Z,6.13
2018-08-30T19:27:34.149Z,5.70
2018-08-30T19:30:08.033Z,5.13
2018-08-30T19:32:37.449Z,4.07
2018-08-30T19:35:11.272Z,6.90
2018-08-30T19:37:40.847Z,5.77
2018-08-30T19:40:14.493Z,6.13
2018-08-30T19:42:43.055Z,10.23
2018-08-30T19:45:11.844Z,5.70
2018-08-30T19:47:40.472Z,6.43
2018-08-30T19:50:09.081Z,5.70
2018-08-30T19:52:37.709Z,4.50
2018-08-30T19:55:07.289Z,6.43
2018-08-30T19:57:36.778Z,6.40
2018-08-30T20:00:05.792Z,6.00
2018-08-30T20:02:35.248Z,4.33
2018-08-30T20:05:04.838Z,8.53
2018-08-30T20:07:33.455Z,6.43
2018-08-30T20:10:02.179Z,6.00
2018-08-30T20:12:31.677Z,6.00
2018-08-30T20:15:00.304Z,7.47
2018-08-30T20:17:29.950Z,8.17
2018-08-30T20:19:59.543Z,6.27
2018-08-30T20:22:28.349Z,4.00
2018-08-30T20:24:58.747Z,6.10
2018-08-30T20:27:28.903Z,7.60
2018-08-30T20:29:57.750Z,3.77
2018-08-30T20:32:26.374Z,8.63
2018-08-30T20:34:54.993Z,6.40
2018-08-30T20:37:23.918Z,6.60
2018-08-30T20:39:52.815Z,5.67
2018-08-30T20:42:21.518Z,7.37
2018-08-30T20:44:50.496Z,7.30
2018-08-30T20:47:20.300Z,5.93
2018-08-30T20:49:49.675Z,6.63
2018-08-30T20:52:18.460Z,8.23
2018-08-30T20:54:47.622Z,6.93
2018-08-30T20:57:16.314Z,4.73
2018-08-30T20:59:44.942Z,8.63
2018-08-30T21:02:13.570Z,6.70
2018-08-30T21:04:42.199Z,6.07
2018-08-30T21:07:12.493Z,6.57
2018-08-30T21:09:41.002Z,8.97
2018-08-30T21:12:10.268Z,5.17
2018-08-30T21:14:39.962Z,5.97
2018-08-30T21:17:08.598Z,5.13
2018-08-30T21:19:37.224Z,6.90
2018-08-30T21:22:06.071Z,7.23
2018-08-30T21:24:34.655Z,6.17
2018-08-30T21:27:03.234Z,8.73
2018-08-30T21:29:31.769Z,4.90
2018-08-30T21:32:00.489Z,6.43
2018-08-30T21:34:29.022Z,4.43
2018-08-30T21:36:57.514Z,11.47
2018-08-30T21:39:26.079Z,7.20
2018-08-30T21:41:54.745Z,8.40
2018-08-30T21:44:23.287Z,7.37
2018-08-30T21:46:52.517Z,7.10
2018-08-30T21:49:22.382Z,7.93
2018-08-30T21:51:51.512Z,4.77
2018-08-30T21:54:20.205Z,6.30
2018-08-30T21:56:49.127Z,8.90
2018-08-30T21:59:17.976Z,9.80
2018-08-30T22:01:46.585Z,5.57
2018-08-30T22:04:16.414Z,6.40
2018-08-30T22:06:45.819Z,6.70
2018-08-30T22:09:14.513Z,7.60
2018-08-30T22:11:44.836Z,5.97
2018-08-30T22:14:13.321Z,4.33
2018-08-30T22:16:41.789Z,9.70
2018-08-30T22:19:10.258Z,6.17
2018-08-30T22:21:40.104Z,8.97
2018-08-30T22:24:10.110Z,7.43
2018-08-30T22:26:39.148Z,9.03
2018-08-30T22:29:07.870Z,6.17
2018-08-30T22:31:36.370Z,10.43
2018-08-30T22:34:05.073Z,7.67
2018-08-30T22:36:34.309Z,4.63
2018-08-30T22:39:02.855Z,8.20
2018-08-30T22:41:31.329Z,6.20
2018-08-30T22:44:00.707Z,8.17
2018-08-30T22:46:29.420Z,7.77
2018-08-30T22:49:00.201Z,11.90
2018-08-30T22:51:29.392Z,7.20
2018-08-30T22:53:57.864Z,11.23
2018-08-30T22:56:26.357Z,7.27
2018-08-30T22:58:54.934Z,10.30
2018-08-30T23:01:23.440Z,9.43
2018-08-30T23:03:51.889Z,5.33
2018-08-30T23:06:20.706Z,5.93
2018-08-30T23:08:50.387Z,5.40
2018-08-30T23:11:19.152Z,6.23
2018-08-30T23:13:48.644Z,7.57
2018-08-30T23:16:18.002Z,10.33
2018-08-30T23:18:46.565Z,6.13
2018-08-30T23:21:15.060Z,9.30
2018-08-30T23:23:43.740Z,9.03
2018-08-30T23:26:12.228Z,8.00
2018-08-30T23:28:40.855Z,8.90
2018-08-30T23:31:09.366Z,5.73
2018-08-30T23:33:38.095Z,7.87
2018-08-30T23:36:06.616Z,6.47
2018-08-30T23:38:35.136Z,12.23
2018-08-30T23:41:03.803Z,10.93
2018-08-30T23:43:32.829Z,7.23
2018-08-30T23:46:01.813Z,10.33
2018-08-30T23:48:30.721Z,8.13
2018-08-30T23:50:59.907Z,10.97
2018-08-30T23:53:28.382Z,7.10
2018-08-30T23:55:57.091Z,7.83
2018-08-30T23:58:36.772Z,7.93
